createdAt,value
2019-05-20T00:00:28.462Z,14.50
2019-05-20T00:03:00.462Z,14.45
2019-05-20T00:05:31.455Z,14.20
2019-05-20T00:08:03.588Z,15.10
2019-05-20T00:10:34.749Z,13.18
2019-05-20T00:13:06.857Z,13.45
2019-05-20T00:15:38.860Z,13.43
2019-05-20T00:18:10.997Z,12.63
2019-05-20T00:20:45.038Z,13.50
2019-05-20T00:23:16.326Z,12.53
2019-05-20T00:25:48.326Z,11.08
2019-05-20T00:28:20.586Z,13.15
2019-05-20T00:30:51.666Z,12.88
2019-05-20T00:33:22.637Z,10.88
2019-05-20T00:35:53.470Z,13.15
2019-05-20T00:38:24.443Z,10.03
2019-05-20T00:40:57.432Z,12.58
2019-05-20T00:43:28.422Z,10.80
2019-05-20T00:46:00.801Z,12.68
2019-05-20T00:48:32.899Z,11.63
2019-05-20T00:51:04.833Z,12.82
2019-05-20T00:53:36.703Z,12.65
2019-05-20T00:56:07.882Z,11.63
2019-05-20T00:58:41.162Z,12.10
2019-05-20T01:01:12.282Z,12.50
2019-05-20T01:03:45.549Z,11.33
2019-05-20T01:06:16.641Z,11.77
2019-05-20T01:08:48.772Z,11.68
2019-05-20T01:11:22.231Z,12.53
2019-05-20T01:13:54.237Z,12.68
2019-05-20T01:16:26.825Z,14.60
2019-05-20T01:18:58.695Z,13.58
2019-05-20T01:21:30.700Z,12.00
2019-05-20T01:24:01.681Z,13.45
2019-05-20T01:26:33.592Z,13.38
2019-05-20T01:29:06.163Z,12.45
2019-05-20T01:31:38.295Z,12.85
2019-05-20T01:34:09.119Z,13.35
2019-05-20T01:36:40.101Z,12.28
2019-05-20T01:39:13.405Z,12.60
2019-05-20T01:41:44.345Z,11.80
2019-05-20T01:44:16.274Z,12.75
2019-05-20T01:46:48.418Z,12.78
2019-05-20T01:49:20.486Z,12.00
2019-05-20T01:51:52.554Z,11.00
2019-05-20T01:54:23.799Z,11.18
2019-05-20T01:56:57.706Z,12.15
2019-05-20T01:59:29.793Z,11.78
2019-05-20T02:02:01.754Z,11.33
2019-05-20T02:04:32.913Z,9.88
2019-05-20T02:07:03.807Z,11.70
2019-05-20T02:09:34.959Z,12.25
2019-05-20T02:12:07.044Z,10.95
2019-05-20T02:14:39.404Z,9.63
2019-05-20T02:17:13.137Z,12.60
2019-05-20T02:19:45.186Z,11.68
2019-05-20T02:22:17.225Z,9.80
2019-05-20T02:24:48.369Z,9.58
2019-05-20T02:27:22.130Z,11.65
2019-05-20T02:29:54.251Z,11.90
2019-05-20T02:32:25.245Z,10.95
2019-05-20T02:34:58.928Z,11.10
2019-05-20T02:37:29.832Z,11.73
2019-05-20T02:40:03.770Z,9.88
2019-05-20T02:45:06.310Z,15.20
2019-05-20T02:47:38.226Z,10.40
2019-05-20T12:34:37.489Z,10.00
2019-05-20T12:37:10.497Z,9.15
2019-05-20T12:39:43.295Z,8.93
2019-05-20T12:42:16.592Z,9.43
2019-05-20T12:44:49.484Z,9.40
2019-05-20T12:47:21.773Z,9.10
2019-05-20T12:49:54.084Z,9.20
2019-05-20T12:52:26.958Z,9.93
2019-05-20T12:55:08.134Z,10.15
2019-05-20T12:57:34.937Z,8.95
2019-05-20T13:00:10.986Z,10.08
2019-05-20T13:02:44.889Z,9.40
2019-05-20T13:05:17.262Z,9.63
2019-05-20T13:07:50.627Z,8.78
2019-05-20T13:10:29.674Z,9.48
2019-05-20T13:12:58.402Z,9.28
2019-05-20T13:15:30.963Z,8.98
2019-05-20T13:18:04.466Z,8.83
2019-05-20T13:20:36.822Z,9.30
2019-05-20T13:23:12.039Z,8.83
2019-05-20T13:25:44.669Z,8.25
2019-05-20T13:28:16.637Z,7.80
2019-05-20T13:30:50.433Z,7.75
2019-05-20T13:35:56.720Z,8.30
2019-05-20T13:38:29.048Z,8.35
2019-05-20T13:41:04.280Z,9.15
2019-05-20T13:43:38.065Z,9.08
2019-05-20T13:48:45.212Z,7.75
2019-05-20T13:51:17.607Z,8.63
2019-05-20T13:53:50.059Z,8.33
2019-05-20T13:56:22.459Z,8.93
2019-05-20T13:58:54.813Z,8.38
2019-05-20T14:01:27.177Z,8.35
2019-05-20T14:03:59.483Z,8.63
2019-05-20T14:06:32.887Z,8.23
2019-05-20T14:09:07.801Z,8.63
2019-05-20T14:11:41.300Z,8.55
2019-05-20T14:14:14.556Z,9.10
2019-05-20T14:16:47.884Z,9.43
2019-05-20T14:19:22.667Z,8.60
2019-05-20T14:21:58.523Z,8.93
2019-05-20T14:24:31.774Z,9.10
2019-05-20T14:27:04.110Z,10.38
2019-05-20T14:29:36.266Z,9.78
2019-05-20T14:32:09.571Z,8.93
2019-05-20T14:34:44.913Z,9.60
2019-05-20T14:37:19.532Z,9.45
2019-05-20T14:39:52.508Z,9.45
2019-05-20T14:42:25.650Z,10.27
2019-05-20T14:44:59.066Z,10.38
2019-05-20T14:47:31.506Z,10.00
2019-05-20T14:50:04.760Z,11.18
2019-05-20T14:52:38.092Z,11.45
2019-05-20T14:55:11.818Z,11.08
2019-05-20T14:57:45.345Z,10.88
2019-05-20T15:00:17.939Z,11.18
2019-05-20T15:02:51.531Z,10.98
2019-05-20T15:05:24.979Z,10.70
2019-05-20T15:07:57.249Z,10.85
2019-05-20T15:10:30.837Z,11.15
2019-05-20T15:13:03.281Z,10.43
2019-05-20T15:15:37.053Z,10.28
2019-05-20T15:18:10.332Z,10.32
2019-05-20T15:20:45.524Z,9.60
2019-05-20T15:23:17.856Z,9.35
2019-05-20T15:25:51.104Z,10.65
2019-05-20T15:28:23.508Z,10.25
2019-05-20T15:30:55.771Z,10.43
2019-05-20T15:33:28.122Z,10.75
2019-05-20T15:36:03.723Z,10.18
2019-05-20T15:38:37.199Z,10.93
2019-05-20T15:41:12.158Z,10.30
2019-05-20T15:43:44.477Z,10.32
2019-05-20T15:46:17.755Z,10.70
2019-05-20T15:48:50.118Z,9.33
2019-05-20T15:51:23.362Z,9.40
2019-05-20T15:53:56.588Z,10.90
2019-05-20T15:56:29.149Z,12.60
2019-05-20T15:59:02.420Z,10.80
2019-05-20T16:01:34.806Z,9.90
2019-05-20T16:04:07.875Z,10.58
2019-05-20T16:06:39.877Z,11.40
2019-05-20T16:09:17.135Z,11.28
2019-05-20T16:11:49.905Z,11.48
2019-05-20T16:14:23.107Z,11.22
2019-05-20T16:16:56.008Z,11.00
2019-05-20T16:19:29.431Z,13.75
2019-05-20T16:22:01.673Z,12.60
2019-05-20T16:24:34.115Z,13.25
2019-05-20T16:27:07.517Z,14.53
2019-05-20T16:29:39.742Z,12.70
2019-05-20T16:32:14.508Z,12.65
2019-05-20T16:34:47.718Z,13.20
2019-05-20T16:37:20.652Z,12.88
2019-05-20T16:39:53.518Z,12.98
2019-05-20T16:42:26.791Z,13.25
2019-05-20T16:44:59.875Z,12.63
2019-05-20T16:47:32.288Z,14.27
2019-05-20T16:50:04.966Z,14.23
2019-05-20T16:52:40.164Z,14.00
2019-05-20T16:55:13.834Z,13.15
2019-05-20T16:57:46.793Z,14.65
2019-05-20T17:00:31.365Z,14.18
2019-05-20T17:02:55.458Z,14.18
2019-05-20T17:05:27.893Z,13.08
2019-05-20T17:08:01.201Z,13.03
2019-05-20T17:10:34.497Z,13.08
2019-05-20T17:13:07.989Z,13.90
2019-05-20T17:15:41.356Z,12.78
2019-05-20T17:18:17.345Z,14.78
2019-05-20T17:20:49.757Z,12.07
2019-05-20T17:23:22.123Z,13.83
2019-05-20T17:25:55.555Z,14.03
2019-05-20T17:28:27.957Z,13.48
2019-05-20T17:31:01.400Z,12.78
2019-05-20T17:33:33.770Z,13.62
2019-05-20T17:36:07.164Z,13.80
2019-05-20T17:38:41.205Z,13.72
2019-05-20T17:41:15.261Z,14.65
2019-05-20T17:43:48.663Z,16.55
2019-05-20T17:46:21.784Z,13.58
2019-05-20T17:48:56.643Z,14.07
2019-05-20T17:51:31.365Z,15.05
2019-05-20T17:54:04.563Z,13.30
2019-05-20T17:56:37.824Z,14.17
2019-05-20T17:59:10.165Z,12.85
2019-05-20T18:01:42.342Z,12.68
2019-05-20T18:04:15.796Z,13.50
2019-05-20T18:06:49.200Z,13.98
2019-05-20T18:09:22.670Z,13.15
2019-05-20T18:11:57.717Z,13.60
2019-05-20T18:14:30.168Z,14.15
2019-05-20T18:17:03.331Z,14.13
2019-05-20T18:19:35.433Z,13.67
2019-05-20T18:22:08.487Z,13.13
2019-05-20T18:24:41.835Z,14.58
2019-05-20T18:27:14.116Z,14.90
2019-05-20T18:29:47.280Z,13.80
2019-05-20T18:32:19.587Z,13.37
2019-05-20T18:34:52.966Z,13.95
2019-05-20T18:37:25.888Z,12.82
2019-05-20T18:40:12.754Z,14.78
2019-05-20T18:42:35.771Z,13.32
2019-05-20T18:45:11.839Z,14.47
2019-05-20T18:47:45.031Z,14.00
2019-05-20T18:50:18.064Z,14.33
2019-05-20T18:52:51.763Z,14.00
2019-05-20T18:55:23.879Z,16.80
2019-05-20T18:57:56.362Z,13.75
2019-05-20T19:00:29.827Z,14.07
2019-05-20T19:03:02.003Z,11.70
2019-05-20T19:05:37.115Z,12.68
2019-05-20T19:08:10.677Z,12.43
2019-05-20T19:10:43.780Z,13.83
2019-05-20T19:13:17.248Z,13.60
2019-05-20T19:15:50.573Z,13.08
2019-05-20T19:18:25.590Z,13.80
2019-05-20T19:20:59.018Z,13.58
2019-05-20T19:23:33.663Z,14.33
2019-05-20T19:26:06.519Z,14.05
2019-05-20T19:28:41.728Z,13.80
2019-05-20T19:31:15.074Z,14.63
2019-05-20T19:33:47.398Z,14.30
2019-05-20T19:36:20.558Z,13.08
2019-05-20T19:38:53.641Z,14.70
2019-05-20T19:41:26.875Z,14.50
2019-05-20T19:44:00.959Z,13.67
2019-05-20T19:49:06.212Z,14.20
2019-05-20T19:51:39.435Z,14.77
2019-05-20T19:54:13.516Z,12.93
2019-05-20T19:56:47.026Z,12.73
2019-05-20T19:59:19.351Z,15.32
2019-05-20T20:01:52.426Z,12.10
2019-05-20T20:04:25.909Z,12.13
2019-05-20T20:06:58.269Z,12.60
2019-05-20T20:09:31.644Z,12.05
2019-05-20T20:12:06.452Z,13.00
2019-05-20T20:14:39.723Z,13.10
2019-05-20T20:17:13.120Z,12.37
2019-05-20T20:19:46.392Z,12.95
2019-05-20T20:22:19.719Z,13.43
2019-05-20T20:24:52.150Z,13.28
2019-05-20T20:27:24.598Z,13.38
2019-05-20T20:29:58.085Z,12.98
2019-05-20T20:32:38.140Z,14.25
2019-05-20T20:35:05.734Z,13.28
2019-05-20T20:37:39.343Z,12.33
2019-05-20T20:40:12.982Z,12.20
2019-05-20T20:42:45.349Z,13.05
2019-05-20T20:45:20.754Z,12.93
2019-05-20T20:47:53.928Z,14.33
2019-05-20T20:50:27.413Z,13.18
2019-05-20T20:52:59.909Z,12.85
2019-05-20T20:55:33.076Z,12.80
2019-05-20T20:58:06.474Z,14.05
2019-05-20T21:00:38.761Z,14.58
2019-05-20T21:03:12.261Z,13.80
2019-05-20T21:05:45.203Z,14.15
2019-05-20T21:08:20.121Z,14.03
2019-05-20T21:10:53.383Z,12.40
2019-05-20T21:13:26.838Z,14.07
2019-05-20T21:16:00.519Z,13.55
2019-05-20T21:18:35.704Z,13.45
2019-05-20T21:21:07.966Z,13.80
2019-05-20T21:23:40.308Z,14.23
2019-05-20T21:26:13.640Z,13.28
2019-05-20T21:28:47.772Z,13.50
2019-05-20T21:33:53.410Z,14.50
2019-05-20T21:36:26.684Z,12.70
2019-05-20T21:38:59.644Z,14.28
2019-05-20T21:41:34.049Z,12.93
2019-05-20T21:44:06.691Z,13.48
2019-05-20T21:46:40.041Z,13.80
2019-05-20T21:49:13.391Z,13.35
2019-05-20T21:51:46.952Z,13.88
2019-05-20T21:54:20.271Z,12.85
2019-05-20T21:56:53.233Z,12.70
2019-05-20T21:59:26.800Z,13.08
2019-05-20T22:01:59.734Z,13.38
2019-05-20T22:04:35.317Z,13.98
2019-05-20T22:07:08.600Z,12.78
2019-05-20T22:09:42.114Z,13.87
2019-05-20T22:12:15.423Z,13.90
2019-05-20T22:14:48.559Z,14.35
2019-05-20T22:17:20.915Z,13.45
2019-05-20T22:19:54.233Z,13.43
2019-05-20T22:22:46.807Z,14.80
2019-05-20T22:25:20.566Z,15.08
2019-05-20T22:27:55.408Z,13.55
2019-05-20T22:30:28.871Z,14.00
2019-05-20T22:33:02.064Z,14.13
2019-05-20T22:35:35.712Z,16.00
2019-05-20T22:38:10.704Z,14.45
2019-05-20T22:40:44.212Z,15.83
2019-05-20T22:43:18.699Z,13.88
2019-05-20T22:45:52.122Z,14.30
2019-05-20T22:48:25.498Z,15.23
2019-05-20T22:50:58.952Z,16.53
2019-05-20T22:53:32.207Z,16.23
2019-05-20T22:56:05.407Z,15.10
2019-05-20T22:58:38.773Z,16.37
2019-05-20T23:01:12.128Z,14.17
2019-05-20T23:03:55.953Z,15.27
2019-05-20T23:06:19.870Z,19.70
2019-05-20T23:08:53.229Z,20.13
2019-05-20T23:11:26.222Z,19.23
2019-05-20T23:13:59.554Z,14.98
2019-05-20T23:16:34.611Z,15.67
2019-05-20T23:19:09.671Z,17.48
2019-05-20T23:21:42.991Z,14.80
2019-05-20T23:24:16.273Z,15.40
2019-05-20T23:26:48.339Z,15.97
2019-05-20T23:29:22.008Z,15.35
2019-05-20T23:31:55.219Z,13.40
2019-05-20T23:34:28.909Z,13.98
2019-05-20T23:37:01.860Z,15.58
2019-05-20T23:39:35.473Z,16.27
2019-05-20T23:42:10.983Z,15.53
2019-05-20T23:44:44.224Z,16.55
2019-05-20T23:47:17.320Z,15.63
2019-05-20T23:49:50.773Z,18.85
2019-05-20T23:52:25.923Z,14.28
2019-05-20T23:54:59.335Z,17.07
2019-05-20T23:57:31.189Z,18.20
